Time;durP1;ratioP1;P1;durP2;ratioP2;P2;SDS_P1;SDS_P2;PMS_P1;PMS_P2;Temp;Humidity;BMP_temperature;BMP_pressure;BME280_temperature;BME280_humidity;BME280_pressure;Samples;Min_cycle;Max_cycle;Signal;HPM_P1;HPM_P2
2022/09/30 00:01:50;;;;;;;6.70;5.70;;;9.00;99.90;;;;;;4994717;28;48861;-83
2022/09/30 00:04:23;;;;;;;8.57;6.17;;;9.00;99.90;;;;;;5140545;23;38599;-82
2022/09/30 00:07:01;;;;;;;8.70;6.13;;;8.90;99.90;;;;;;4944447;28;37478;-82
2022/09/30 00:09:29;;;;;;;6.33;5.73;;;8.90;99.90;;;;;;4959074;28;39819;-83
2022/09/30 00:12:06;;;;;;;6.73;6.03;;;8.90;99.90;;;;;;4964682;28;38161;-81
2022/09/30 00:14:37;;;;;;;6.60;5.90;;;8.90;99.90;;;;;;4916522;28;48730;-83
2022/09/30 00:17:07;;;;;;;8.93;5.90;;;8.90;99.90;;;;;;4954816;28;37072;-83
2022/09/30 00:19:37;;;;;;;8.67;6.57;;;8.90;99.90;;;;;;4949338;28;38168;-82
2022/09/30 00:22:06;;;;;;;8.13;6.47;;;8.90;99.90;;;;;;4935850;28;39142;-82
2022/09/30 00:24:34;;;;;;;7.13;6.43;;;8.90;99.90;;;;;;4960459;28;37655;-83
2022/09/30 00:27:03;;;;;;;9.57;6.67;;;8.90;99.90;;;;;;4945947;28;36394;-83
2022/09/30 00:29:39;;;;;;;7.53;6.00;;;8.80;99.90;;;;;;4956475;28;47824;-81
2022/09/30 00:32:15;;;;;;;9.03;6.07;;;8.90;99.90;;;;;;4946397;28;38644;-85
2022/09/30 00:34:45;;;;;;;9.90;7.07;;;8.90;99.90;;;;;;4935946;28;37583;-84
2022/09/30 00:37:16;;;;;;;9.53;6.00;;;8.90;99.90;;;;;;4926824;28;36755;-81
2022/09/30 00:39:45;;;;;;;9.20;6.73;;;9.00;99.90;;;;;;4943534;28;37757;-82
2022/09/30 00:42:22;;;;;;;7.37;6.47;;;9.00;99.90;;;;;;4931751;28;39256;-82
2022/09/30 00:44:55;;;;;;;7.20;6.30;;;9.00;99.90;;;;;;4957704;28;39427;-81
2022/09/30 00:47:43;;;;;;;9.73;7.20;;;8.90;99.90;;;;;;4967190;28;38629;-83
2022/09/30 00:50:29;;;;;;;7.03;6.30;;;9.00;99.90;;;;;;4961667;28;39349;-81
2022/09/30 00:53:12;;;;;;;7.50;5.23;;;8.90;99.90;;;;;;4978897;28;38879;-81
2022/09/30 00:56:05;;;;;;;7.37;6.27;;;8.90;99.90;;;;;;4949505;28;48850;-83
2022/09/30 00:59:05;;;;;;;;;;;8.90;99.90;;;;;;4953522;28;48050;-82
2022/09/30 01:01:41;;;;;;;8.03;5.90;;;8.90;99.90;;;;;;5420394;23;47533;-81
2022/09/30 01:04:15;;;;;;;8.10;6.37;;;8.90;99.90;;;;;;4932207;28;36767;-79
2022/09/30 01:06:42;;;;;;;10.37;6.13;;;9.00;99.90;;;;;;4915996;28;38283;-81
2022/09/30 01:09:09;;;;;;;8.07;6.40;;;9.00;99.90;;;;;;4929273;28;37600;-80
2022/09/30 01:11:36;;;;;;;7.57;6.20;;;9.00;99.90;;;;;;4916264;29;39214;-80
2022/09/30 01:14:17;;;;;;;8.33;6.10;;;9.00;99.90;;;;;;4938518;28;37625;-80
2022/09/30 01:17:01;;;;;;;7.50;5.97;;;9.00;99.90;;;;;;4922923;28;48130;-81
2022/09/30 01:19:50;;;;;;;7.43;5.70;;;9.00;99.90;;;;;;4937249;28;47591;-79
2022/09/30 01:22:39;;;;;;;9.67;6.50;;;9.00;99.90;;;;;;4932367;28;38650;-79
2022/09/30 01:25:36;;;;;;;8.57;6.50;;;8.90;99.90;;;;;;4930899;28;38359;-80
2022/09/30 01:28:36;;;;;;;9.13;6.03;;;8.80;99.90;;;;;;4937158;28;36996;-80
2022/09/30 01:31:22;;;;;;;7.30;6.33;;;8.80;99.90;;;;;;4936755;28;48078;-80
2022/09/30 01:33:59;;;;;;;7.73;6.57;;;8.70;99.90;;;;;;4956389;28;47022;-80
2022/09/30 01:36:33;;;;;;;7.67;5.90;;;8.70;99.90;;;;;;4937327;28;39155;-80
2022/09/30 01:39:25;;;;;;;7.07;5.90;;;8.70;99.90;;;;;;4924347;28;38435;-80
2022/09/30 01:42:05;;;;;;;8.65;6.47;;;8.60;99.90;;;;;;4919755;28;47811;-80
2022/09/30 01:44:45;;;;;;;7.20;6.20;;;8.60;99.90;;;;;;4934598;28;48800;-80
2022/09/30 01:47:21;;;;;;;9.63;6.93;;;8.60;99.90;;;;;;4934316;28;38400;-80
2022/09/30 01:49:57;;;;;;;7.03;6.20;;;8.50;99.90;;;;;;4933171;28;38101;-80
2022/09/30 01:52:39;;;;;;;6.37;5.67;;;8.40;99.90;;;;;;4923866;28;37136;-80
2022/09/30 01:55:21;;;;;;;8.37;6.10;;;8.40;99.90;;;;;;4934509;28;38316;-80
2022/09/30 01:58:13;;;;;;;8.05;6.45;;;8.40;99.90;;;;;;4908714;28;37309;-80
2022/09/30 02:00:43;;;;;;;8.63;6.90;;;8.40;99.90;;;;;;4908790;29;47998;-80
2022/09/30 02:03:23;;;;;;;7.93;6.50;;;8.30;99.90;;;;;;4928344;28;38138;-81
2022/09/30 02:06:01;;;;;;;8.77;6.90;;;8.30;99.90;;;;;;4937064;28;39072;-80
2022/09/30 02:08:50;;;;;;;8.13;6.50;;;8.30;99.90;;;;;;4935983;28;39100;-80
2022/09/30 02:11:19;;;;;;;8.57;6.07;;;8.20;99.90;;;;;;4931504;28;37287;-80
2022/09/30 02:13:58;;;;;;;7.60;6.00;;;8.20;99.90;;;;;;4923008;28;36123;-80
2022/09/30 02:16:31;;;;;;;7.37;6.13;;;8.20;99.90;;;;;;4943086;28;37823;-80
2022/09/30 02:19:22;;;;;;;12.70;6.13;;;8.20;99.90;;;;;;4934578;28;38583;-80
2022/09/30 02:21:57;;;;;;;8.53;6.40;;;8.10;99.90;;;;;;4921349;28;49454;-81
2022/09/30 02:24:26;;;;;;;12.40;7.77;;;8.10;99.90;;;;;;4912654;28;35950;-80
2022/09/30 02:26:57;;;;;;;11.17;8.80;;;8.00;99.90;;;;;;4928175;28;37783;-80
2022/09/30 02:29:38;;;;;;;14.90;8.67;;;8.10;99.90;;;;;;4938314;28;38303;-80
2022/09/30 02:32:12;;;;;;;11.53;7.77;;;8.10;99.90;;;;;;4920831;28;37460;-80
2022/09/30 02:34:44;;;;;;;10.43;7.83;;;8.10;99.90;;;;;;4925923;28;37356;-80
2022/09/30 02:37:17;;;;;;;9.10;8.13;;;8.10;99.90;;;;;;4915835;28;37744;-80
2022/09/30 02:39:59;;;;;;;9.67;8.00;;;8.00;99.90;;;;;;4933070;28;37996;-80
2022/09/30 02:42:27;;;;;;;13.30;8.83;;;8.00;99.90;;;;;;4938350;28;36960;-80
2022/09/30 02:45:00;;;;;;;10.27;6.77;;;8.00;99.90;;;;;;4936155;28;37554;-79
2022/09/30 02:48:14;;;;;;;11.63;8.68;;;8.00;99.90;;;;;;4935008;28;36950;-80
2022/09/30 02:50:49;;;;;;;13.50;9.80;;;7.90;99.90;;;;;;4911600;28;46842;-80
2022/09/30 02:53:19;;;;;;;15.00;10.80;;;7.90;99.90;;;;;;4927451;28;37177;-79
2022/09/30 02:55:54;;;;;;;13.17;9.63;;;8.00;99.90;;;;;;4947201;28;36333;-80
2022/09/30 02:58:24;;;;;;;11.97;9.30;;;7.90;99.90;;;;;;4926387;28;37385;-80
2022/09/30 03:00:53;;;;;;;16.57;11.33;;;7.90;99.90;;;;;;4942361;28;38409;-79
2022/09/30 03:03:25;;;;;;;15.60;11.07;;;7.90;99.90;;;;;;4942135;28;38654;-80
2022/09/30 03:05:52;;;;;;;18.25;13.00;;;7.90;99.90;;;;;;4914345;29;36409;-79
2022/09/30 03:08:19;;;;;;;13.20;10.97;;;7.90;99.90;;;;;;4912531;29;39079;-80
2022/09/30 03:10:51;;;;;;;17.50;11.77;;;7.90;99.90;;;;;;4940888;28;35668;-80
2022/09/30 03:13:38;;;;;;;17.05;13.23;;;7.80;99.90;;;;;;4940917;28;37648;-80
2022/09/30 03:16:53;;;;;;;18.07;11.97;;;7.80;99.90;;;;;;4938527;28;36781;-79
2022/09/30 03:19:22;;;;;;;15.97;12.03;;;7.80;99.90;;;;;;4897548;29;48160;-80
2022/09/30 03:22:03;;;;;;;18.70;13.20;;;7.80;99.90;;;;;;4911990;29;38034;-80
2022/09/30 03:24:51;;;;;;;13.93;11.53;;;7.80;99.90;;;;;;4929389;28;47481;-80
2022/09/30 03:27:56;;;;;;;16.97;13.60;;;7.80;99.90;;;;;;4940698;28;37301;-80
2022/09/30 03:30:25;;;;;;;17.00;12.97;;;7.80;99.90;;;;;;4937394;28;39456;-78
2022/09/30 03:33:09;;;;;;;19.90;15.73;;;7.80;99.90;;;;;;4933422;28;38853;-79
2022/09/30 03:35:57;;;;;;;19.83;15.27;;;7.80;99.90;;;;;;4920247;28;47224;-80
2022/09/30 03:38:31;;;;;;;19.43;14.47;;;7.70;99.90;;;;;;4935524;28;37676;-79
2022/09/30 03:41:08;;;;;;;22.50;15.83;;;7.80;99.90;;;;;;4939921;28;39778;-79
2022/09/30 03:43:50;;;;;;;17.83;14.13;;;7.80;99.90;;;;;;4934903;28;48084;-79
2022/09/30 03:47:03;;;;;;;19.93;15.60;;;7.70;99.90;;;;;;4943438;28;37309;-80
2022/09/30 03:49:31;;;;;;;;;;;7.70;99.90;;;;;;4933540;28;48462;-80
2022/09/30 03:52:03;;;;;;;16.17;13.40;;;7.70;99.90;;;;;;4924356;28;37309;-80
2022/09/30 03:54:30;;;;;;;21.58;15.60;;;7.70;99.90;;;;;;4939870;28;48468;-80
2022/09/30 03:56:57;;;;;;;23.43;16.27;;;7.70;99.90;;;;;;4941276;28;37123;-80
2022/09/30 03:59:27;;;;;;;21.53;16.40;;;7.60;99.90;;;;;;4942758;28;38693;-81
2022/09/30 04:01:55;;;;;;;20.67;16.97;;;7.60;99.90;;;;;;4931263;29;37087;-81
2022/09/30 04:04:22;;;;;;;20.27;16.17;;;7.60;99.90;;;;;;4938845;28;37957;-80
2022/09/30 04:06:48;;;;;;;21.37;16.40;;;7.60;99.90;;;;;;4936847;28;37763;-80
2022/09/30 04:09:14;;;;;;;21.97;17.33;;;7.60;99.90;;;;;;4928450;28;34567;-80
2022/09/30 04:11:41;;;;;;;22.73;17.27;;;7.60;99.90;;;;;;4939586;28;39345;-81
2022/09/30 04:14:08;;;;;;;23.77;17.73;;;7.60;99.90;;;;;;4918427;28;37403;-80
2022/09/30 04:16:34;;;;;;;20.47;17.30;;;7.60;99.90;;;;;;4933330;28;37513;-80
2022/09/30 04:19:00;;;;;;;23.03;17.30;;;7.60;99.90;;;;;;4917540;28;37531;-80
2022/09/30 04:21:29;;;;;;;21.23;16.17;;;7.50;99.90;;;;;;4920148;28;37977;-80
2022/09/30 04:23:56;;;;;;;21.97;17.33;;;7.50;99.90;;;;;;4933838;28;37613;-80
2022/09/30 04:26:24;;;;;;;29.70;20.60;;;7.50;99.90;;;;;;4919727;28;38692;-80
2022/09/30 04:28:51;;;;;;;26.10;18.60;;;7.50;99.90;;;;;;4919394;28;36941;-81
2022/09/30 04:31:18;;;;;;;22.00;17.80;;;7.50;99.90;;;;;;4928988;28;38076;-80
2022/09/30 04:33:44;;;;;;;25.33;19.43;;;7.50;99.90;;;;;;4932733;28;41533;-80
2022/09/30 04:36:10;;;;;;;21.87;17.50;;;7.50;99.90;;;;;;4915287;28;37723;-80
2022/09/30 04:38:37;;;;;;;23.77;19.10;;;7.50;99.90;;;;;;4936021;28;38170;-80
2022/09/30 04:41:06;;;;;;;23.07;18.17;;;7.50;99.90;;;;;;4916855;29;37935;-80
2022/09/30 04:43:36;;;;;;;23.67;18.70;;;7.40;99.90;;;;;;4930371;28;47145;-80
2022/09/30 04:46:02;;;;;;;26.03;18.90;;;7.40;99.90;;;;;;4931887;28;38680;-80
2022/09/30 04:48:30;;;;;;;23.87;18.33;;;7.40;99.90;;;;;;4911737;28;37346;-80
2022/09/30 04:50:58;;;;;;;25.77;21.00;;;7.40;99.90;;;;;;4935278;28;38860;-80
2022/09/30 04:53:24;;;;;;;28.60;20.37;;;7.40;99.90;;;;;;4931665;28;38751;-80
2022/09/30 04:55:57;;;;;;;26.43;20.37;;;7.40;99.90;;;;;;4922118;28;38467;-80
2022/09/30 04:58:23;;;;;;;28.17;20.52;;;7.40;99.90;;;;;;4917670;28;36478;-80
2022/09/30 05:00:49;;;;;;;20.40;18.03;;;7.40;99.90;;;;;;4932718;28;38823;-80
2022/09/30 05:03:15;;;;;;;28.07;20.40;;;7.40;99.90;;;;;;4938514;28;38713;-80
2022/09/30 05:05:43;;;;;;;23.87;19.40;;;7.30;99.90;;;;;;4924721;28;36085;-79
2022/09/30 05:08:09;;;;;;;24.13;20.30;;;7.30;99.90;;;;;;4915482;29;36370;-80
2022/09/30 05:10:36;;;;;;;26.63;21.10;;;7.30;99.90;;;;;;4939782;28;37867;-79
2022/09/30 05:13:03;;;;;;;26.67;20.77;;;7.30;99.90;;;;;;4936485;28;38985;-81
2022/09/30 05:15:29;;;;;;;23.93;19.50;;;7.30;99.90;;;;;;4930469;28;47178;-81
2022/09/30 05:17:56;;;;;;;26.23;21.07;;;7.30;99.90;;;;;;4947495;28;38375;-82
2022/09/30 05:20:30;;;;;;;27.83;22.10;;;7.30;99.90;;;;;;4933220;28;38650;-82
2022/09/30 05:22:56;;;;;;;30.83;23.07;;;7.30;99.90;;;;;;4926627;28;38503;-80
2022/09/30 05:25:22;;;;;;;27.40;22.00;;;7.40;99.90;;;;;;4936128;28;37643;-80
2022/09/30 05:27:50;;;;;;;29.37;22.77;;;7.40;99.90;;;;;;4937136;28;37475;-80
2022/09/30 05:30:16;;;;;;;29.37;22.97;;;7.40;99.90;;;;;;4929501;28;38721;-81
2022/09/30 05:32:42;;;;;;;39.53;28.50;;;7.50;99.90;;;;;;4926825;28;37648;-81
2022/09/30 05:35:10;;;;;;;31.27;24.20;;;7.40;99.90;;;;;;4933041;28;38759;-81
2022/09/30 05:37:37;;;;;;;36.83;27.33;;;7.50;99.90;;;;;;4925587;28;39548;-81
2022/09/30 05:40:03;;;;;;;34.10;25.93;;;7.50;99.90;;;;;;4917151;28;37701;-78
2022/09/30 05:42:31;;;;;;;31.60;24.23;;;7.50;99.90;;;;;;4952008;28;48819;-79
2022/09/30 05:44:57;;;;;;;32.10;25.40;;;7.50;99.90;;;;;;4923807;28;39702;-78
2022/09/30 05:47:23;;;;;;;34.10;26.17;;;7.50;99.90;;;;;;5044028;23;37421;-77
2022/09/30 05:49:49;;;;;;;28.80;23.00;;;7.50;99.90;;;;;;4982703;28;38905;-78
2022/09/30 05:52:15;;;;;;;34.10;26.17;;;7.50;99.90;;;;;;4985689;28;37801;-79
2022/09/30 05:54:42;;;;;;;32.13;24.57;;;7.50;99.90;;;;;;4989035;28;37767;-78
2022/09/30 05:57:08;;;;;;;32.93;24.93;;;7.50;99.90;;;;;;4971950;28;36450;-78
2022/09/30 05:59:34;;;;;;;36.33;28.10;;;7.50;99.90;;;;;;4983303;28;38951;-78
2022/09/30 06:02:00;;;;;;;46.67;31.83;;;7.50;99.90;;;;;;4974100;28;38617;-79
2022/09/30 06:04:26;;;;;;;37.87;27.80;;;7.50;99.90;;;;;;4987697;28;38336;-79
2022/09/30 06:06:52;;;;;;;35.27;27.03;;;7.60;99.90;;;;;;4967836;28;36450;-78
2022/09/30 06:09:18;;;;;;;36.03;27.03;;;7.60;99.90;;;;;;4985859;28;39904;-80
2022/09/30 06:11:45;;;;;;;38.40;27.07;;;7.70;99.90;;;;;;4969937;28;36959;-79
2022/09/30 06:14:11;;;;;;;42.30;29.43;;;7.80;99.90;;;;;;4983111;28;38324;-80
2022/09/30 06:16:37;;;;;;;43.30;32.47;;;7.80;99.90;;;;;;4977989;28;36479;-80
2022/09/30 06:19:05;;;;;;;49.17;36.17;;;7.90;99.90;;;;;;4984025;28;38562;-80
2022/09/30 06:21:31;;;;;;;80.47;44.77;;;7.90;99.90;;;;;;4995299;28;38436;-80
2022/09/30 06:23:59;;;;;;;83.73;44.77;;;8.20;99.90;;;;;;4977661;28;37077;-82
2022/09/30 06:26:26;;;;;;;66.43;41.63;;;8.30;99.90;;;;;;4980318;28;36579;-80
2022/09/30 06:28:53;;;;;;;51.87;36.20;;;8.40;99.90;;;;;;4995792;28;38038;-80
2022/09/30 06:31:21;;;;;;;81.87;45.67;;;8.40;99.90;;;;;;4982451;28;20112;-80
2022/09/30 06:33:47;;;;;;;131.67;58.30;;;8.50;99.90;;;;;;4978099;28;37283;-79
2022/09/30 06:36:13;;;;;;;78.80;45.80;;;8.70;99.90;;;;;;4982164;28;38360;-80
2022/09/30 06:38:39;;;;;;;42.67;31.23;;;8.80;99.90;;;;;;4988395;28;38758;-82
2022/09/30 06:41:06;;;;;;;80.07;43.80;;;8.80;99.90;;;;;;4978586;28;39016;-80
2022/09/30 06:43:32;;;;;;;70.17;38.63;;;9.00;99.90;;;;;;4982816;28;38432;-80
2022/09/30 06:46:00;;;;;;;68.80;40.23;;;9.10;99.90;;;;;;4993750;28;37606;-80
2022/09/30 06:48:28;;;;;;;36.33;26.50;;;9.30;99.90;;;;;;4975533;28;38757;-80
2022/09/30 06:50:58;;;;;;;59.53;35.40;;;9.50;99.90;;;;;;4992881;28;39696;-81
2022/09/30 06:53:24;;;;;;;42.40;28.97;;;9.80;99.90;;;;;;4970975;28;37456;-81
2022/09/30 06:55:55;;;;;;;33.60;25.07;;;9.90;99.90;;;;;;4992074;28;37164;-82
2022/09/30 06:58:23;;;;;;;41.87;27.00;;;10.30;99.90;;;;;;4972325;28;38918;-81
2022/09/30 07:01:02;;;;;;;60.53;32.27;;;10.40;99.90;;;;;;4991446;28;38896;-81
2022/09/30 07:03:34;;;;;;;41.60;28.33;;;10.50;99.90;;;;;;4995043;28;38775;-80
2022/09/30 07:06:03;;;;;;;45.45;29.52;;;10.50;99.90;;;;;;4982234;28;38514;-79
2022/09/30 07:08:31;;;;;;;36.93;25.57;;;10.60;99.90;;;;;;4988753;28;38669;-79
2022/09/30 07:10:58;;;;;;;40.43;27.60;;;10.70;99.90;;;;;;4972208;28;37340;-78
2022/09/30 07:13:25;;;;;;;31.97;21.57;;;10.80;99.90;;;;;;4967986;28;37283;-79
2022/09/30 07:15:53;;;;;;;29.47;21.67;;;10.90;99.90;;;;;;4983547;28;37414;-79
2022/09/30 07:18:20;;;;;;;33.13;23.63;;;10.90;99.90;;;;;;4979703;28;40336;-79
2022/09/30 07:20:48;;;;;;;30.47;21.87;;;10.90;99.90;;;;;;4975797;28;39010;-79
2022/09/30 07:23:15;;;;;;;28.83;22.17;;;11.00;99.90;;;;;;4974275;28;37136;-79
2022/09/30 07:25:57;;;;;;;28.65;22.38;;;11.10;99.90;;;;;;4985626;28;37129;-79
2022/09/30 07:28:29;;;;;;;30.58;22.00;;;11.20;99.90;;;;;;4986962;28;39423;-79
2022/09/30 07:30:55;;;;;;;27.95;20.10;;;11.20;99.90;;;;;;4969257;28;37989;-80
2022/09/30 07:33:22;;;;;;;25.90;19.23;;;11.30;99.90;;;;;;4980454;28;38152;-80
2022/09/30 07:35:53;;;;;;;26.23;20.05;;;11.50;99.90;;;;;;4990145;28;38349;-78
2022/09/30 07:38:21;;;;;;;19.60;15.88;;;11.50;99.90;;;;;;4975561;28;39186;-77
2022/09/30 07:41:21;;;;;;;21.55;16.77;;;11.60;99.90;;;;;;4969279;28;38027;-78
2022/09/30 07:43:47;;;;;;;24.15;16.35;;;11.70;99.90;;;;;;4980382;28;47821;-78
2022/09/30 07:46:39;;;;;;;19.15;16.52;;;11.80;99.90;;;;;;5307134;23;36671;-81
2022/09/30 07:56:53;;;;;;;17.75;14.40;;;12.20;99.90;;;;;;5568006;23;20047;-79
2022/09/30 07:59:20;;;;;;;16.13;14.43;;;12.30;99.90;;;;;;5029315;23;38142;-78
2022/09/30 08:01:49;;;;;;;17.65;13.60;;;12.30;99.90;;;;;;4941812;28;37782;-79
2022/09/30 08:04:23;;;;;;;17.52;12.75;;;12.40;99.90;;;;;;4969101;28;38789;-81
2022/09/30 08:06:59;;;;;;;13.50;11.05;;;12.50;99.90;;;;;;4939378;28;36931;-80
2022/09/30 08:09:27;;;;;;;13.13;11.80;;;12.60;99.90;;;;;;4931074;28;38368;-78
2022/09/30 08:11:53;;;;;;;14.23;11.73;;;12.70;99.90;;;;;;4932687;28;38417;-77
2022/09/30 08:14:24;;;;;;;13.23;11.13;;;12.80;99.90;;;;;;4929052;28;37308;-78
2022/09/30 08:16:51;;;;;;;11.70;10.50;;;12.80;99.90;;;;;;4929974;28;37896;-78
2022/09/30 08:19:21;;;;;;;11.55;10.35;;;12.90;99.90;;;;;;4948716;28;39449;-78
2022/09/30 08:21:47;;;;;;;13.18;11.45;;;13.00;99.90;;;;;;4931809;28;37415;-78
2022/09/30 08:24:14;;;;;;;13.02;9.65;;;13.10;99.90;;;;;;4937145;28;38066;-78
2022/09/30 08:26:41;;;;;;;13.13;10.82;;;13.20;99.90;;;;;;4945759;28;38887;-78
2022/09/30 08:29:09;;;;;;;14.80;10.85;;;13.30;99.90;;;;;;4944590;28;38072;-78
2022/09/30 08:31:36;;;;;;;14.07;10.57;;;13.40;99.90;;;;;;4935260;28;37750;-78
2022/09/30 08:34:02;;;;;;;13.35;9.48;;;13.40;99.90;;;;;;4951893;28;38097;-79
2022/09/30 08:36:29;;;;;;;11.70;9.48;;;13.50;99.90;;;;;;4948891;28;48535;-78
2022/09/30 08:38:55;;;;;;;15.57;10.55;;;13.60;99.90;;;;;;4928841;28;39508;-78
2022/09/30 08:41:27;;;;;;;11.20;10.00;;;13.70;99.90;;;;;;4946081;28;38382;-76
2022/09/30 08:44:21;;;;;;;11.23;10.02;;;13.70;99.90;;;;;;4947957;28;39849;-76
2022/09/30 08:47:09;;;;;;;14.05;9.75;;;13.80;99.90;;;;;;4958046;28;48373;-77
2022/09/30 08:49:47;;;;;;;13.68;9.98;;;13.90;99.90;;;;;;4948827;28;47069;-76
2022/09/30 08:52:25;;;;;;;10.20;9.00;;;14.00;99.90;;;;;;4950589;28;38519;-77
2022/09/30 08:54:54;;;;;;;11.48;8.63;;;14.10;99.90;;;;;;4939539;28;37330;-78
2022/09/30 08:57:21;;;;;;;11.70;8.30;;;14.10;99.90;;;;;;4941815;28;38300;-78
2022/09/30 08:59:59;;;;;;;10.88;8.75;;;14.20;99.90;;;;;;4939421;28;38529;-78
2022/09/30 09:02:29;;;;;;;10.20;8.15;;;14.30;99.90;;;;;;4979302;28;37913;-78
2022/09/30 09:05:05;;;;;;;9.57;7.88;;;14.40;99.90;;;;;;4951425;28;36815;-78
2022/09/30 09:07:40;;;;;;;8.18;7.32;;;14.40;99.90;;;;;;4948823;28;47737;-78
2022/09/30 09:10:09;;;;;;;11.60;8.05;;;14.40;99.90;;;;;;4953061;28;39011;-78
2022/09/30 09:12:54;;;;;;;10.18;7.53;;;14.50;99.90;;;;;;4961423;28;37793;-78
2022/09/30 09:15:53;;;;;;;8.00;7.20;;;14.50;99.90;;;;;;4952017;28;38166;-78
2022/09/30 09:18:26;;;;;;;8.00;6.57;;;14.60;99.90;;;;;;4918410;28;36079;-77
2022/09/30 09:20:59;;;;;;;8.52;5.90;;;14.70;99.90;;;;;;4951342;28;38130;-77
2022/09/30 09:23:30;;;;;;;;;;;14.90;99.90;;;;;;4959833;28;37325;-78
2022/09/30 09:25:55;;;;;;;6.05;4.80;;;15.00;99.90;;;;;;4950023;28;37141;-80
2022/09/30 09:28:47;;;;;;;7.60;4.80;;;15.00;99.90;;;;;;4946054;28;35404;-79
2022/09/30 09:31:18;;;;;;;7.63;4.65;;;15.10;99.90;;;;;;4959411;28;38896;-80
2022/09/30 09:33:46;;;;;;;4.45;4.05;;;15.20;99.90;;;;;;4945119;28;38137;-80
2022/09/30 09:36:22;;;;;;;6.78;4.00;;;15.50;99.90;;;;;;4940914;28;37928;-81
2022/09/30 09:39:05;;;;;;;7.18;4.90;;;15.60;99.90;;;;;;4943011;28;37194;-83
2022/09/30 09:41:52;;;;;;;4.13;3.80;;;15.60;99.90;;;;;;4948310;28;46991;-82
2022/09/30 09:44:33;;;;;;;5.63;3.83;;;15.80;99.90;;;;;;4943094;28;39190;-81
2022/09/30 09:47:14;;;;;;;7.15;3.80;;;16.00;99.90;;;;;;4947364;28;37914;-84
2022/09/30 09:49:43;;;;;;;5.90;3.90;;;16.10;99.90;;;;;;4946707;28;47446;-85
2022/09/30 09:52:12;;;;;;;4.88;3.63;;;16.30;99.90;;;;;;4965673;28;37998;-84
2022/09/30 09:54:45;;;;;;;5.38;3.55;;;16.40;99.90;;;;;;4949184;28;38108;-84
2022/09/30 09:57:12;;;;;;;;;;;16.30;99.90;;;;;;4951275;28;37034;-84
2022/09/30 09:59:55;;;;;;;6.88;3.78;;;16.50;99.90;;;;;;4944279;28;38559;-83
2022/09/30 10:02:24;;;;;;;10.45;5.10;;;16.50;99.90;;;;;;4945467;28;38093;-83
2022/09/30 10:04:58;;;;;;;5.05;3.10;;;16.80;99.90;;;;;;4936524;28;38523;-83
2022/09/30 10:07:28;;;;;;;5.25;3.05;;;16.70;99.90;;;;;;4952057;28;39321;-82
2022/09/30 10:10:14;;;;;;;5.13;3.83;;;16.70;99.90;;;;;;4936672;28;36461;-83
2022/09/30 10:12:40;;;;;;;4.75;3.70;;;16.70;99.90;;;;;;4919243;28;45709;-81
2022/09/30 10:15:22;;;;;;;3.88;2.97;;;16.80;99.90;;;;;;4948141;28;38811;-82
2022/09/30 10:17:53;;;;;;;4.73;3.30;;;17.00;99.90;;;;;;4927569;28;36954;-83
2022/09/30 10:20:27;;;;;;;5.15;4.13;;;17.20;99.90;;;;;;4957977;28;39157;-82
2022/09/30 10:23:08;;;;;;;5.38;4.07;;;17.20;99.90;;;;;;4934441;28;39728;-84
2022/09/30 10:25:34;;;;;;;5.68;3.35;;;17.00;99.90;;;;;;4931539;28;47013;-82
2022/09/30 10:28:17;;;;;;;5.30;3.50;;;17.10;99.90;;;;;;4941375;28;37559;-83
2022/09/30 10:31:00;;;;;;;6.22;4.22;;;17.20;99.90;;;;;;4944791;28;48740;-83
2022/09/30 10:33:30;;;;;;;9.68;3.80;;;17.40;99.90;;;;;;4960316;28;38794;-83
2022/09/30 10:36:00;;;;;;;5.30;4.22;;;17.40;99.90;;;;;;4946896;28;39333;-84
2022/09/30 10:38:28;;;;;;;4.93;4.25;;;17.50;99.90;;;;;;4925173;28;38167;-83
2022/09/30 10:40:55;;;;;;;5.25;4.22;;;17.40;99.90;;;;;;4931905;28;37055;-82
2022/09/30 10:43:39;;;;;;;8.02;4.25;;;17.80;99.90;;;;;;4929125;28;37624;-84
2022/09/30 10:46:07;;;;;;;5.43;4.28;;;17.80;99.90;;;;;;4946607;28;37122;-83
2022/09/30 10:48:36;;;;;;;7.30;4.00;;;18.00;99.90;;;;;;4949045;28;38094;-83
2022/09/30 10:51:04;;;;;;;5.55;3.30;;;18.40;99.90;;;;;;4931114;28;39903;-84
2022/09/30 10:53:34;;;;;;;5.32;3.22;;;18.30;99.90;;;;;;4928533;28;47754;-82
2022/09/30 10:56:04;;;;;;;4.82;3.65;;;18.20;99.90;;;;;;4941573;28;38191;-83
2022/09/30 10:58:45;;;;;;;5.28;3.67;;;18.40;99.90;;;;;;4948534;28;48726;-83
2022/09/30 11:01:25;;;;;;;6.18;3.67;;;18.20;99.90;;;;;;4933784;28;36556;-85
2022/09/30 11:04:01;;;;;;;5.85;4.32;;;18.00;99.90;;;;;;4926046;28;38342;-85
2022/09/30 11:06:31;;;;;;;5.25;4.00;;;18.00;99.90;;;;;;4941941;28;46416;-80
2022/09/30 11:09:43;;;;;;;5.90;4.30;;;18.10;99.90;;;;;;4942110;28;39074;-82
2022/09/30 11:12:40;;;;;;;5.47;3.60;;;17.90;99.90;;;;;;4861178;29;48845;-84
2022/09/30 11:15:20;;;;;;;5.55;3.95;;;18.00;99.90;;;;;;4940151;28;39798;-85
2022/09/30 11:18:00;;;;;;;5.70;3.90;;;18.20;99.90;;;;;;4954312;28;38917;-78
2022/09/30 11:20:35;;;;;;;7.55;3.35;;;17.90;99.90;;;;;;4955349;28;37643;-80
2022/09/30 11:23:13;;;;;;;4.82;3.00;;;18.10;99.90;;;;;;4945356;28;37152;-78
2022/09/30 11:26:06;;;;;;;5.30;2.45;;;18.20;99.90;;;;;;4943101;28;48454;-84
2022/09/30 11:29:09;;;;;;;5.40;3.03;;;18.00;99.90;;;;;;4935408;28;47413;-86
2022/09/30 11:31:57;;;;;;;2.70;2.28;;;17.90;99.90;;;;;;4920247;28;47861;-83
2022/09/30 11:34:42;;;;;;;4.35;2.40;;;18.40;99.90;;;;;;4940234;28;37225;-84
2022/09/30 11:37:29;;;;;;;2.80;2.10;;;18.60;99.90;;;;;;4942994;28;39025;-82
2022/09/30 11:40:16;;;;;;;4.82;2.70;;;18.60;99.90;;;;;;4927006;28;37883;-82
2022/09/30 11:42:48;;;;;;;3.50;2.63;;;18.30;99.90;;;;;;4941067;28;47086;-84
2022/09/30 11:45:33;;;;;;;3.47;1.98;;;18.40;99.90;;;;;;4934362;28;36966;-82
2022/09/30 11:48:24;;;;;;;4.93;2.95;;;18.60;99.90;;;;;;4932396;28;39723;-81
2022/09/30 11:51:14;;;;;;;5.13;3.10;;;18.80;99.90;;;;;;4950506;28;48446;-87
2022/09/30 11:54:03;;;;;;;2.75;2.50;;;18.50;99.90;;;;;;4933208;28;47116;-83
2022/09/30 11:56:38;;;;;;;6.45;3.10;;;18.20;99.90;;;;;;4932996;28;47861;-86
2022/09/30 11:59:13;;;;;;;6.88;3.00;;;18.20;99.90;;;;;;4941162;28;39610;-85
2022/09/30 12:01:43;;;;;;;4.65;2.40;;;18.50;99.90;;;;;;4931730;28;47003;-82
2022/09/30 12:04:28;;;;;;;4.65;3.15;;;18.30;99.90;;;;;;4932326;28;37000;-82
2022/09/30 12:07:13;;;;;;;6.90;3.08;;;18.20;99.90;;;;;;4950024;28;36988;-82
2022/09/30 12:09:47;;;;;;;5.55;3.10;;;17.90;99.90;;;;;;4943766;28;48697;-83
2022/09/30 12:12:16;;;;;;;3.75;2.50;;;17.70;99.90;;;;;;4931837;28;37477;-84
2022/09/30 12:15:00;;;;;;;5.15;2.65;;;17.60;99.90;;;;;;4934160;28;37723;-77
2022/09/30 12:17:47;;;;;;;3.47;2.15;;;17.50;99.90;;;;;;4932888;28;35974;-77
2022/09/30 12:20:25;;;;;;;3.83;2.53;;;17.40;99.90;;;;;;4935303;28;38889;-83
2022/09/30 12:23:02;;;;;;;2.10;1.88;;;17.10;99.90;;;;;;4933240;28;42008;-83
2022/09/30 12:25:32;;;;;;;5.07;1.88;;;17.00;99.90;;;;;;4933227;28;37686;-85
2022/09/30 12:31:39;;;;;;;4.22;1.85;;;17.80;99.90;;;;;;4944913;28;49375;-83
2022/09/30 12:34:24;;;;;;;3.25;1.92;;;18.10;99.90;;;;;;4951699;28;38077;-84
2022/09/30 12:37:22;;;;;;;5.68;2.33;;;18.10;99.90;;;;;;4932732;28;37272;-84
2022/09/30 12:40:07;;;;;;;2.42;1.77;;;18.00;99.90;;;;;;4926605;28;47567;-84
2022/09/30 12:42:46;;;;;;;4.38;2.22;;;17.90;99.90;;;;;;4955049;28;46831;-82
2022/09/30 12:45:50;;;;;;;3.15;2.00;;;18.00;99.90;;;;;;4935508;28;37163;-80
2022/09/30 12:48:19;;;;;;;1.73;1.63;;;18.10;99.90;;;;;;4928008;28;37079;-83
2022/09/30 12:50:51;;;;;;;8.00;2.10;;;18.20;99.90;;;;;;4935204;28;36346;-84
2022/09/30 12:53:31;;;;;;;2.72;1.65;;;18.10;99.90;;;;;;4931367;28;39016;-83
2022/09/30 12:56:10;;;;;;;2.08;1.35;;;18.10;99.90;;;;;;4928684;28;37273;-83
2022/09/30 12:58:42;;;;;;;7.65;1.98;;;17.90;99.90;;;;;;4930358;28;47166;-84
2022/09/30 13:01:17;;;;;;;2.25;1.65;;;17.80;99.90;;;;;;4938937;28;36227;-84
2022/09/30 13:04:00;;;;;;;3.05;2.10;;;17.90;99.90;;;;;;4928797;28;40892;-85
2022/09/30 13:06:46;;;;;;;3.00;1.77;;;17.90;99.90;;;;;;4926464;28;37531;-81
2022/09/30 13:09:15;;;;;;;2.42;1.60;;;17.90;99.90;;;;;;4928095;28;38609;-85
2022/09/30 13:11:47;;;;;;;2.08;1.45;;;18.00;99.90;;;;;;4943740;28;38678;-83
2022/09/30 13:14:31;;;;;;;3.38;1.83;;;18.20;99.90;;;;;;4942571;28;39115;-84
2022/09/30 13:17:06;;;;;;;2.92;1.55;;;18.10;99.90;;;;;;4946412;28;38437;-82
2022/09/30 13:19:43;;;;;;;2.58;1.65;;;18.10;99.90;;;;;;4936238;28;47262;-82
2022/09/30 13:22:28;;;;;;;2.28;1.50;;;18.10;99.90;;;;;;4936518;28;36411;-83
2022/09/30 13:25:02;;;;;;;4.22;1.73;;;18.10;99.90;;;;;;4934717;28;37928;-83
2022/09/30 13:27:46;;;;;;;3.63;1.77;;;18.20;99.90;;;;;;4956986;28;38527;-83
2022/09/30 13:30:15;;;;;;;4.05;1.55;;;18.20;99.90;;;;;;4947828;28;38069;-83
2022/09/30 13:33:05;;;;;;;2.95;1.40;;;18.40;99.90;;;;;;4944245;28;37285;-82